Aérodrome :
LOGIN :

S'inscrire | Disclaimer

   EN    FR    IT 

 










Légende :    VFR   VFR Marginal   IFR   IFR Intensif   IFR Très Intensif
Visi : 
Plafond : 
>= 8 km
>= 3000ft
5 à 8 km
1000 à 3000 ft
1500m à 5 km
500 à 1000 ft
800 à 1500m
200 à 500 ft
< 800m
< 200 ft
Symboles :   Orages  Brouillard  Fortes neiges  Fortes précipitations  Vent > 20 kt
SIGMETs :   Divers  Orages  Givrage  Turbulence  Onde Orograph.  Cendres Volcan.







- Altitude de l'aérodrome : 17 ft
- Code IATA : MPL
- Voir les cartes d'approche


LFMT - Montpellier Méditerranée

DERNIER METAR :
  • 122130Z AUTO 14017KT 9999 FEW019/// BKN033/// BKN048/// ///TCU 19/16 Q1023 TEMPO SHRA

METARs EXPIRÉS :
  • 122100Z AUTO 14015KT 9999 -RA SCT017/// BKN026/// BKN033/// ///TCU 18/16 Q1023 TEMPO SHRA
  • 122030Z AUTO 14016KT 9999 SCT017/// BKN022/// BKN030/// ///TCU 18/16 Q1023 TEMPO SHRA
  • 122000Z AUTO 14017KT 9999 ///TCU 19/16 Q1023 TEMPO RA OVC005
  • 121930Z AUTO 13016KT 9999 FEW014 SCT019 BKN038 18/16 Q1022 TEMPO RA OVC005
  • 121900Z AUTO 13016KT 9999 FEW018/// SCT029/// BKN038/// ///TCU 18/16 Q1022 TEMPO RA OVC005

TAF TAF LFMT
Valide du 12 à 21h jusqu'au 13 à 21h UTC


122000Z 1221/1321 14015KT 9999 BKN030
TEMPO 1221/1310 SHRA FEW020TCU
BECMG 1304/1306 04010KT
PROB40
TEMPO 1306/1310 4000 BR OVC008
ATIS : +33 4 67 13 11 70
Pas de NOTAMs connus pour ce terrain.



MET'MAP, la Météo Aéronautique d'un coup d'oeil ! - Copyright ORBIFLY Décembre 2007 - Disclaimer

ORBIFLY MET'MAP TEAM :

Programmation & Développement : Alexandra Zaïnal
Conception & Développement : Baudouin d'Aumeries
Co-Programmation & Développement : Marc-Olivier Méhu
Soutien technique & logistique : Manuel Goepfert

Contact : metmap@orbifly.com




SOURCES & CREDITS :

   NOAA